sim
Sign-in with your pilot id or email,
or register
Callsign
Passwort

Schedule Details

Flight Number: EWG7526 (2)
Departure: Hamburg Airport (EDDH) at 10:35
Arrival: Fuerteventura Airport (GCFV) at 15:35
Route: Eurowings Passenger Schedule. Enter filed route here before submitting Pirep.

Weather Information
Getting current METAR information for EDDH 231020Z 28006KT 230V350 9999 FEW034 26/16 Q1021 NOSIG
Getting current METAR information for GCFV 231030Z 05013KT 9999 FEW020 24/18 Q1017

Schedule Frequency

Route Map